sensor_id;sensor_type;location;lat;lon;timestamp;P1;durP1;ratioP1;P2;durP2;ratioP2
7983;SDS011;4037;47.980;10.172;2023-12-20T00:00:56;3.07;;;2.77;;
7983;SDS011;4037;47.980;10.172;2023-12-20T00:03:22;3.53;;;2.97;;
7983;SDS011;4037;47.980;10.172;2023-12-20T00:05:49;3.83;;;3.13;;
7983;SDS011;4037;47.980;10.172;2023-12-20T00:08:15;4.70;;;3.00;;
7983;SDS011;4037;47.980;10.172;2023-12-20T00:10:41;3.87;;;3.57;;
7983;SDS011;4037;47.980;10.172;2023-12-20T00:13:07;5.70;;;3.67;;
7983;SDS011;4037;47.980;10.172;2023-12-20T00:15:34;3.97;;;3.50;;
7983;SDS011;4037;47.980;10.172;2023-12-20T00:18:00;3.10;;;2.80;;
7983;SDS011;4037;47.980;10.172;2023-12-20T00:20:26;3.03;;;2.73;;
7983;SDS011;4037;47.980;10.172;2023-12-20T00:22:54;3.43;;;3.13;;
7983;SDS011;4037;47.980;10.172;2023-12-20T00:25:20;4.17;;;2.93;;
7983;SDS011;4037;47.980;10.172;2023-12-20T00:27:46;3.40;;;3.10;;
7983;SDS011;4037;47.980;10.172;2023-12-20T00:30:12;3.57;;;2.73;;
7983;SDS011;4037;47.980;10.172;2023-12-20T00:32:38;4.03;;;3.30;;
7983;SDS011;4037;47.980;10.172;2023-12-20T00:35:04;3.50;;;3.20;;
7983;SDS011;4037;47.980;10.172;2023-12-20T00:37:30;3.30;;;3.00;;
7983;SDS011;4037;47.980;10.172;2023-12-20T00:39:56;4.03;;;2.87;;
7983;SDS011;4037;47.980;10.172;2023-12-20T00:42:22;3.70;;;3.30;;
7983;SDS011;4037;47.980;10.172;2023-12-20T00:44:48;5.17;;;3.57;;
7983;SDS011;4037;47.980;10.172;2023-12-20T00:47:15;3.23;;;2.97;;
7983;SDS011;4037;47.980;10.172;2023-12-20T00:49:41;2.93;;;2.63;;
7983;SDS011;4037;47.980;10.172;2023-12-20T00:52:07;3.53;;;2.73;;
7983;SDS011;4037;47.980;10.172;2023-12-20T00:54:33;2.57;;;2.30;;
7983;SDS011;4037;47.980;10.172;2023-12-20T00:56:59;3.57;;;2.93;;
7983;SDS011;4037;47.980;10.172;2023-12-20T00:59:25;4.10;;;3.07;;
7983;SDS011;4037;47.980;10.172;2023-12-20T01:01:51;4.67;;;2.63;;
7983;SDS011;4037;47.980;10.172;2023-12-20T01:04:17;2.60;;;2.40;;
7983;SDS011;4037;47.980;10.172;2023-12-20T01:06:43;4.73;;;3.00;;
7983;SDS011;4037;47.980;10.172;2023-12-20T01:09:09;3.00;;;2.70;;
7983;SDS011;4037;47.980;10.172;2023-12-20T01:11:35;2.83;;;2.60;;
7983;SDS011;4037;47.980;10.172;2023-12-20T01:14:01;4.63;;;2.60;;
7983;SDS011;4037;47.980;10.172;2023-12-20T01:16:27;2.73;;;2.37;;
7983;SDS011;4037;47.980;10.172;2023-12-20T01:18:53;2.40;;;2.10;;
7983;SDS011;4037;47.980;10.172;2023-12-20T01:21:19;6.87;;;3.03;;
7983;SDS011;4037;47.980;10.172;2023-12-20T01:23:45;3.67;;;2.43;;
7983;SDS011;4037;47.980;10.172;2023-12-20T01:26:11;2.63;;;2.27;;
7983;SDS011;4037;47.980;10.172;2023-12-20T01:28:37;4.13;;;2.67;;
7983;SDS011;4037;47.980;10.172;2023-12-20T01:31:03;2.60;;;2.40;;
7983;SDS011;4037;47.980;10.172;2023-12-20T01:33:29;2.67;;;2.37;;
7983;SDS011;4037;47.980;10.172;2023-12-20T01:35:55;3.03;;;2.73;;
7983;SDS011;4037;47.980;10.172;2023-12-20T01:38:21;3.00;;;2.30;;
7983;SDS011;4037;47.980;10.172;2023-12-20T01:40:47;2.53;;;2.33;;
7983;SDS011;4037;47.980;10.172;2023-12-20T01:43:13;2.43;;;2.13;;
7983;SDS011;4037;47.980;10.172;2023-12-20T01:45:39;2.33;;;2.00;;
7983;SDS011;4037;47.980;10.172;2023-12-20T01:48:06;2.63;;;2.40;;
7983;SDS011;4037;47.980;10.172;2023-12-20T01:50:32;3.73;;;2.43;;
7983;SDS011;4037;47.980;10.172;2023-12-20T01:53:01;2.50;;;2.30;;
7983;SDS011;4037;47.980;10.172;2023-12-20T01:55:29;2.57;;;2.37;;
7983;SDS011;4037;47.980;10.172;2023-12-20T01:57:55;3.10;;;2.40;;
7983;SDS011;4037;47.980;10.172;2023-12-20T02:00:22;3.17;;;2.40;;
7983;SDS011;4037;47.980;10.172;2023-12-20T02:02:49;2.97;;;2.67;;
7983;SDS011;4037;47.980;10.172;2023-12-20T02:05:16;2.43;;;2.23;;
7983;SDS011;4037;47.980;10.172;2023-12-20T02:07:42;3.67;;;2.20;;
7983;SDS011;4037;47.980;10.172;2023-12-20T02:10:08;3.83;;;2.33;;
7983;SDS011;4037;47.980;10.172;2023-12-20T02:12:34;2.43;;;2.03;;
7983;SDS011;4037;47.980;10.172;2023-12-20T02:15:01;3.07;;;2.17;;
7983;SDS011;4037;47.980;10.172;2023-12-20T02:17:27;2.53;;;2.27;;
7983;SDS011;4037;47.980;10.172;2023-12-20T02:19:53;3.27;;;2.73;;
7983;SDS011;4037;47.980;10.172;2023-12-20T02:22:19;2.50;;;2.30;;
7983;SDS011;4037;47.980;10.172;2023-12-20T02:24:45;2.83;;;2.50;;
7983;SDS011;4037;47.980;10.172;2023-12-20T02:27:11;3.13;;;2.47;;
7983;SDS011;4037;47.980;10.172;2023-12-20T02:29:38;3.90;;;2.30;;
7983;SDS011;4037;47.980;10.172;2023-12-20T02:32:04;2.33;;;2.13;;
7983;SDS011;4037;47.980;10.172;2023-12-20T02:34:30;2.70;;;2.50;;
7983;SDS011;4037;47.980;10.172;2023-12-20T02:36:56;2.80;;;2.60;;
7983;SDS011;4037;47.980;10.172;2023-12-20T02:39:22;2.50;;;2.30;;
7983;SDS011;4037;47.980;10.172;2023-12-20T02:41:48;2.90;;;2.20;;
7983;SDS011;4037;47.980;10.172;2023-12-20T02:44:14;2.37;;;2.20;;
7983;SDS011;4037;47.980;10.172;2023-12-20T02:46:40;2.90;;;2.10;;
7983;SDS011;4037;47.980;10.172;2023-12-20T02:49:06;3.00;;;2.80;;
7983;SDS011;4037;47.980;10.172;2023-12-20T02:51:32;2.50;;;2.30;;
7983;SDS011;4037;47.980;10.172;2023-12-20T02:53:58;3.73;;;2.53;;
7983;SDS011;4037;47.980;10.172;2023-12-20T02:56:24;2.80;;;2.40;;
7983;SDS011;4037;47.980;10.172;2023-12-20T02:58:50;3.37;;;2.30;;
7983;SDS011;4037;47.980;10.172;2023-12-20T03:01:16;2.70;;;2.30;;
7983;SDS011;4037;47.980;10.172;2023-12-20T03:03:42;2.40;;;2.20;;
7983;SDS011;4037;47.980;10.172;2023-12-20T03:06:08;3.60;;;2.47;;
7983;SDS011;4037;47.980;10.172;2023-12-20T03:08:34;2.47;;;2.27;;
7983;SDS011;4037;47.980;10.172;2023-12-20T03:11:00;2.40;;;2.20;;
7983;SDS011;4037;47.980;10.172;2023-12-20T03:13:26;2.83;;;2.60;;
7983;SDS011;4037;47.980;10.172;2023-12-20T03:15:52;4.67;;;2.80;;
7983;SDS011;4037;47.980;10.172;2023-12-20T03:18:18;3.13;;;2.77;;
7983;SDS011;4037;47.980;10.172;2023-12-20T03:20:44;3.60;;;3.07;;
7983;SDS011;4037;47.980;10.172;2023-12-20T03:23:12;3.40;;;2.80;;
7983;SDS011;4037;47.980;10.172;2023-12-20T03:25:38;9.13;;;3.10;;
7983;SDS011;4037;47.980;10.172;2023-12-20T03:28:04;4.80;;;3.43;;
7983;SDS011;4037;47.980;10.172;2023-12-20T03:30:30;3.00;;;2.80;;
7983;SDS011;4037;47.980;10.172;2023-12-20T03:32:59;3.83;;;3.13;;
7983;SDS011;4037;47.980;10.172;2023-12-20T03:35:25;4.93;;;4.10;;
7983;SDS011;4037;47.980;10.172;2023-12-20T03:37:51;5.00;;;3.53;;
7983;SDS011;4037;47.980;10.172;2023-12-20T03:40:17;5.53;;;3.70;;
7983;SDS011;4037;47.980;10.172;2023-12-20T03:42:43;5.03;;;4.23;;
7983;SDS011;4037;47.980;10.172;2023-12-20T03:45:09;4.70;;;4.23;;
7983;SDS011;4037;47.980;10.172;2023-12-20T03:47:35;5.53;;;4.17;;
7983;SDS011;4037;47.980;10.172;2023-12-20T03:50:01;5.93;;;4.50;;
7983;SDS011;4037;47.980;10.172;2023-12-20T03:52:27;5.23;;;4.43;;
7983;SDS011;4037;47.980;10.172;2023-12-20T03:54:53;6.00;;;4.83;;
7983;SDS011;4037;47.980;10.172;2023-12-20T03:57:19;6.13;;;5.07;;
7983;SDS011;4037;47.980;10.172;2023-12-20T03:59:45;9.03;;;5.73;;
7983;SDS011;4037;47.980;10.172;2023-12-20T04:02:12;6.63;;;4.93;;
7983;SDS011;4037;47.980;10.172;2023-12-20T04:04:38;7.67;;;5.80;;
7983;SDS011;4037;47.980;10.172;2023-12-20T04:07:04;8.70;;;5.73;;
7983;SDS011;4037;47.980;10.172;2023-12-20T04:09:30;6.40;;;4.83;;
7983;SDS011;4037;47.980;10.172;2023-12-20T04:11:56;7.00;;;5.30;;
7983;SDS011;4037;47.980;10.172;2023-12-20T04:14:22;7.30;;;5.47;;
7983;SDS011;4037;47.980;10.172;2023-12-20T04:16:48;5.80;;;4.97;;
7983;SDS011;4037;47.980;10.172;2023-12-20T04:19:14;7.17;;;5.50;;
7983;SDS011;4037;47.980;10.172;2023-12-20T04:21:40;6.93;;;4.97;;
7983;SDS011;4037;47.980;10.172;2023-12-20T04:24:06;7.20;;;5.63;;
7983;SDS011;4037;47.980;10.172;2023-12-20T04:26:33;7.97;;;6.53;;
7983;SDS011;4037;47.980;10.172;2023-12-20T04:28:59;7.10;;;5.20;;
7983;SDS011;4037;47.980;10.172;2023-12-20T04:31:25;7.93;;;4.60;;
7983;SDS011;4037;47.980;10.172;2023-12-20T04:33:51;5.63;;;4.57;;
7983;SDS011;4037;47.980;10.172;2023-12-20T04:36:17;5.77;;;4.67;;
7983;SDS011;4037;47.980;10.172;2023-12-20T04:38:43;5.80;;;5.00;;
7983;SDS011;4037;47.980;10.172;2023-12-20T04:41:09;6.17;;;5.40;;
7983;SDS011;4037;47.980;10.172;2023-12-20T04:43:35;6.70;;;5.27;;
7983;SDS011;4037;47.980;10.172;2023-12-20T04:46:01;7.70;;;5.63;;
7983;SDS011;4037;47.980;10.172;2023-12-20T04:48:27;7.47;;;5.43;;
7983;SDS011;4037;47.980;10.172;2023-12-20T04:50:53;6.37;;;5.27;;
7983;SDS011;4037;47.980;10.172;2023-12-20T04:53:19;8.20;;;5.17;;
7983;SDS011;4037;47.980;10.172;2023-12-20T04:55:45;6.67;;;5.23;;
7983;SDS011;4037;47.980;10.172;2023-12-20T04:58:11;5.67;;;4.57;;
7983;SDS011;4037;47.980;10.172;2023-12-20T05:00:37;5.63;;;4.77;;
7983;SDS011;4037;47.980;10.172;2023-12-20T05:03:03;5.30;;;4.80;;
7983;SDS011;4037;47.980;10.172;2023-12-20T05:05:29;5.10;;;4.17;;
7983;SDS011;4037;47.980;10.172;2023-12-20T05:07:55;6.73;;;4.13;;
7983;SDS011;4037;47.980;10.172;2023-12-20T05:10:21;5.17;;;4.03;;
7983;SDS011;4037;47.980;10.172;2023-12-20T05:12:47;6.43;;;3.80;;
7983;SDS011;4037;47.980;10.172;2023-12-20T05:15:13;5.20;;;4.17;;
7983;SDS011;4037;47.980;10.172;2023-12-20T05:17:39;3.87;;;3.47;;
7983;SDS011;4037;47.980;10.172;2023-12-20T05:20:06;3.87;;;3.50;;
7983;SDS011;4037;47.980;10.172;2023-12-20T05:22:32;3.50;;;3.10;;
7983;SDS011;4037;47.980;10.172;2023-12-20T05:24:58;4.63;;;3.47;;
7983;SDS011;4037;47.980;10.172;2023-12-20T05:27:24;4.07;;;3.60;;
7983;SDS011;4037;47.980;10.172;2023-12-20T05:29:50;4.17;;;3.23;;
7983;SDS011;4037;47.980;10.172;2023-12-20T05:32:16;4.27;;;3.43;;
7983;SDS011;4037;47.980;10.172;2023-12-20T05:34:42;3.50;;;3.10;;
7983;SDS011;4037;47.980;10.172;2023-12-20T05:37:08;3.97;;;3.00;;
7983;SDS011;4037;47.980;10.172;2023-12-20T05:39:34;4.13;;;3.03;;
7983;SDS011;4037;47.980;10.172;2023-12-20T05:42:00;3.83;;;2.83;;
7983;SDS011;4037;47.980;10.172;2023-12-20T05:44:26;3.20;;;2.73;;
7983;SDS011;4037;47.980;10.172;2023-12-20T05:46:52;4.23;;;2.60;;
7983;SDS011;4037;47.980;10.172;2023-12-20T05:49:18;2.90;;;2.57;;
7983;SDS011;4037;47.980;10.172;2023-12-20T05:51:44;3.40;;;2.83;;
7983;SDS011;4037;47.980;10.172;2023-12-20T05:54:10;3.17;;;2.80;;
7983;SDS011;4037;47.980;10.172;2023-12-20T05:56:36;2.73;;;2.53;;
7983;SDS011;4037;47.980;10.172;2023-12-20T05:59:02;4.73;;;2.87;;
7983;SDS011;4037;47.980;10.172;2023-12-20T06:01:28;2.53;;;2.33;;
7983;SDS011;4037;47.980;10.172;2023-12-20T06:03:54;3.17;;;2.67;;
7983;SDS011;4037;47.980;10.172;2023-12-20T06:06:21;3.60;;;2.47;;
7983;SDS011;4037;47.980;10.172;2023-12-20T06:08:47;2.73;;;2.37;;
7983;SDS011;4037;47.980;10.172;2023-12-20T06:11:13;2.37;;;2.17;;
7983;SDS011;4037;47.980;10.172;2023-12-20T06:13:39;2.30;;;2.10;;
7983;SDS011;4037;47.980;10.172;2023-12-20T06:16:05;2.83;;;2.43;;
7983;SDS011;4037;47.980;10.172;2023-12-20T06:18:34;2.37;;;2.17;;
7983;SDS011;4037;47.980;10.172;2023-12-20T06:21:02;2.20;;;2.00;;
7983;SDS011;4037;47.980;10.172;2023-12-20T06:23:28;2.33;;;2.13;;
7983;SDS011;4037;47.980;10.172;2023-12-20T06:25:54;2.20;;;1.90;;
7983;SDS011;4037;47.980;10.172;2023-12-20T06:28:20;2.20;;;1.87;;
7983;SDS011;4037;47.980;10.172;2023-12-20T06:30:46;2.67;;;2.20;;
7983;SDS011;4037;47.980;10.172;2023-12-20T06:33:14;2.30;;;2.10;;
7983;SDS011;4037;47.980;10.172;2023-12-20T06:35:43;1.93;;;1.83;;
7983;SDS011;4037;47.980;10.172;2023-12-20T06:38:09;2.80;;;2.13;;
7983;SDS011;4037;47.980;10.172;2023-12-20T06:40:36;1.87;;;1.77;;
7983;SDS011;4037;47.980;10.172;2023-12-20T06:43:02;2.10;;;1.90;;
7983;SDS011;4037;47.980;10.172;2023-12-20T06:45:28;1.77;;;1.60;;
7983;SDS011;4037;47.980;10.172;2023-12-20T06:47:54;3.03;;;2.37;;
7983;SDS011;4037;47.980;10.172;2023-12-20T06:50:20;2.33;;;1.80;;
7983;SDS011;4037;47.980;10.172;2023-12-20T06:52:46;2.63;;;2.43;;
7983;SDS011;4037;47.980;10.172;2023-12-20T06:55:12;2.23;;;1.87;;
7983;SDS011;4037;47.980;10.172;2023-12-20T06:57:38;2.70;;;2.10;;
7983;SDS011;4037;47.980;10.172;2023-12-20T07:00:05;2.17;;;1.97;;
7983;SDS011;4037;47.980;10.172;2023-12-20T07:02:31;2.07;;;1.87;;
7983;SDS011;4037;47.980;10.172;2023-12-20T07:04:57;2.50;;;2.20;;
7983;SDS011;4037;47.980;10.172;2023-12-20T07:07:23;3.40;;;2.70;;
7983;SDS011;4037;47.980;10.172;2023-12-20T07:09:49;3.17;;;2.50;;
7983;SDS011;4037;47.980;10.172;2023-12-20T07:12:18;2.90;;;2.63;;
7983;SDS011;4037;47.980;10.172;2023-12-20T07:14:45;4.53;;;2.60;;
7983;SDS011;4037;47.980;10.172;2023-12-20T07:17:11;2.40;;;2.17;;
7983;SDS011;4037;47.980;10.172;2023-12-20T07:19:39;3.00;;;2.20;;
7983;SDS011;4037;47.980;10.172;2023-12-20T07:22:05;2.80;;;2.33;;
7983;SDS011;4037;47.980;10.172;2023-12-20T07:24:32;3.70;;;3.00;;
7983;SDS011;4037;47.980;10.172;2023-12-20T07:26:59;2.63;;;2.33;;
7983;SDS011;4037;47.980;10.172;2023-12-20T07:29:25;6.00;;;3.20;;
7983;SDS011;4037;47.980;10.172;2023-12-20T07:34:18;4.00;;;2.80;;
7983;SDS011;4037;47.980;10.172;2023-12-20T07:36:44;3.73;;;2.83;;
7983;SDS011;4037;47.980;10.172;2023-12-20T07:39:10;3.23;;;2.93;;
7983;SDS011;4037;47.980;10.172;2023-12-20T07:41:36;4.17;;;3.40;;
7983;SDS011;4037;47.980;10.172;2023-12-20T07:44:04;4.80;;;3.70;;
7983;SDS011;4037;47.980;10.172;2023-12-20T07:46:30;4.50;;;3.40;;
7983;SDS011;4037;47.980;10.172;2023-12-20T07:48:56;4.07;;;3.17;;
7983;SDS011;4037;47.980;10.172;2023-12-20T07:51:22;3.40;;;3.07;;
7983;SDS011;4037;47.980;10.172;2023-12-20T07:53:48;2.97;;;2.63;;
7983;SDS011;4037;47.980;10.172;2023-12-20T07:56:14;3.83;;;3.33;;
7983;SDS011;4037;47.980;10.172;2023-12-20T07:58:40;4.30;;;3.27;;
7983;SDS011;4037;47.980;10.172;2023-12-20T08:01:06;3.93;;;3.50;;
7983;SDS011;4037;47.980;10.172;2023-12-20T08:03:32;4.90;;;3.70;;
7983;SDS011;4037;47.980;10.172;2023-12-20T08:05:58;4.87;;;3.10;;
7983;SDS011;4037;47.980;10.172;2023-12-20T08:08:25;3.73;;;2.60;;
7983;SDS011;4037;47.980;10.172;2023-12-20T08:10:51;4.60;;;3.03;;
7983;SDS011;4037;47.980;10.172;2023-12-20T08:13:17;3.07;;;2.53;;
7983;SDS011;4037;47.980;10.172;2023-12-20T08:15:43;2.67;;;2.40;;
7983;SDS011;4037;47.980;10.172;2023-12-20T08:18:09;3.07;;;2.77;;
7983;SDS011;4037;47.980;10.172;2023-12-20T08:20:35;5.10;;;3.43;;
7983;SDS011;4037;47.980;10.172;2023-12-20T08:23:01;3.10;;;2.70;;
7983;SDS011;4037;47.980;10.172;2023-12-20T08:25:27;2.57;;;2.37;;
7983;SDS011;4037;47.980;10.172;2023-12-20T08:27:53;3.23;;;2.60;;
7983;SDS011;4037;47.980;10.172;2023-12-20T08:30:19;3.80;;;2.63;;
7983;SDS011;4037;47.980;10.172;2023-12-20T08:32:47;3.33;;;3.03;;
7983;SDS011;4037;47.980;10.172;2023-12-20T08:35:13;4.50;;;2.93;;
7983;SDS011;4037;47.980;10.172;2023-12-20T08:37:39;2.33;;;2.13;;
7983;SDS011;4037;47.980;10.172;2023-12-20T08:40:05;3.20;;;2.70;;
7983;SDS011;4037;47.980;10.172;2023-12-20T08:42:31;3.07;;;2.77;;
7983;SDS011;4037;47.980;10.172;2023-12-20T08:44:58;2.67;;;2.43;;
7983;SDS011;4037;47.980;10.172;2023-12-20T08:47:24;3.07;;;2.80;;
7983;SDS011;4037;47.980;10.172;2023-12-20T08:49:50;2.97;;;2.70;;
7983;SDS011;4037;47.980;10.172;2023-12-20T08:52:17;3.17;;;2.87;;
7983;SDS011;4037;47.980;10.172;2023-12-20T08:54:43;3.10;;;2.80;;
7983;SDS011;4037;47.980;10.172;2023-12-20T08:57:09;2.87;;;2.60;;
7983;SDS011;4037;47.980;10.172;2023-12-20T08:59:35;2.87;;;2.63;;
7983;SDS011;4037;47.980;10.172;2023-12-20T09:02:01;4.13;;;3.63;;
7983;SDS011;4037;47.980;10.172;2023-12-20T09:04:27;2.97;;;2.57;;
7983;SDS011;4037;47.980;10.172;2023-12-20T09:06:54;3.27;;;2.70;;
7983;SDS011;4037;47.980;10.172;2023-12-20T09:09:20;2.63;;;2.33;;
7983;SDS011;4037;47.980;10.172;2023-12-20T09:11:46;5.77;;;2.47;;
7983;SDS011;4037;47.980;10.172;2023-12-20T09:14:15;2.57;;;2.37;;
7983;SDS011;4037;47.980;10.172;2023-12-20T09:16:41;2.90;;;2.53;;
7983;SDS011;4037;47.980;10.172;2023-12-20T09:19:07;3.60;;;2.67;;
7983;SDS011;4037;47.980;10.172;2023-12-20T09:21:33;3.07;;;2.37;;
7983;SDS011;4037;47.980;10.172;2023-12-20T09:23:59;2.80;;;2.53;;
7983;SDS011;4037;47.980;10.172;2023-12-20T09:26:25;3.10;;;2.30;;
7983;SDS011;4037;47.980;10.172;2023-12-20T09:28:51;2.90;;;2.60;;
7983;SDS011;4037;47.980;10.172;2023-12-20T09:31:17;2.77;;;2.50;;
7983;SDS011;4037;47.980;10.172;2023-12-20T09:33:43;2.67;;;2.47;;
7983;SDS011;4037;47.980;10.172;2023-12-20T09:36:09;2.57;;;2.30;;
7983;SDS011;4037;47.980;10.172;2023-12-20T09:38:35;2.73;;;2.33;;
7983;SDS011;4037;47.980;10.172;2023-12-20T09:41:01;2.63;;;2.17;;
7983;SDS011;4037;47.980;10.172;2023-12-20T09:43:29;2.73;;;2.53;;
7983;SDS011;4037;47.980;10.172;2023-12-20T09:45:56;2.43;;;2.23;;
7983;SDS011;4037;47.980;10.172;2023-12-20T09:48:24;2.93;;;2.60;;
7983;SDS011;4037;47.980;10.172;2023-12-20T09:50:52;3.93;;;3.00;;
7983;SDS011;4037;47.980;10.172;2023-12-20T09:53:18;2.87;;;2.40;;
7983;SDS011;4037;47.980;10.172;2023-12-20T09:55:45;2.30;;;2.10;;
7983;SDS011;4037;47.980;10.172;2023-12-20T09:58:11;3.13;;;2.77;;
7983;SDS011;4037;47.980;10.172;2023-12-20T10:00:37;2.77;;;2.40;;
7983;SDS011;4037;47.980;10.172;2023-12-20T10:03:03;3.20;;;2.60;;
7983;SDS011;4037;47.980;10.172;2023-12-20T10:05:32;3.17;;;2.87;;
7983;SDS011;4037;47.980;10.172;2023-12-20T10:07:59;3.43;;;2.93;;
7983;SDS011;4037;47.980;10.172;2023-12-20T10:10:26;3.63;;;3.27;;
7983;SDS011;4037;47.980;10.172;2023-12-20T10:13:02;4.40;;;3.50;;
7983;SDS011;4037;47.980;10.172;2023-12-20T10:15:28;4.10;;;3.13;;
7983;SDS011;4037;47.980;10.172;2023-12-20T10:17:56;4.10;;;3.20;;
7983;SDS011;4037;47.980;10.172;2023-12-20T10:20:22;5.33;;;3.60;;
7983;SDS011;4037;47.980;10.172;2023-12-20T10:22:48;6.80;;;3.93;;
7983;SDS011;4037;47.980;10.172;2023-12-20T10:25:14;3.87;;;3.47;;
7983;SDS011;4037;47.980;10.172;2023-12-20T10:27:40;4.27;;;3.73;;
7983;SDS011;4037;47.980;10.172;2023-12-20T10:30:06;4.17;;;3.77;;
7983;SDS011;4037;47.980;10.172;2023-12-20T10:32:32;3.83;;;3.13;;
7983;SDS011;4037;47.980;10.172;2023-12-20T10:34:58;3.43;;;3.13;;
7983;SDS011;4037;47.980;10.172;2023-12-20T10:37:24;3.43;;;3.10;;
7983;SDS011;4037;47.980;10.172;2023-12-20T10:39:51;4.47;;;3.47;;
7983;SDS011;4037;47.980;10.172;2023-12-20T10:42:21;3.93;;;3.53;;
7983;SDS011;4037;47.980;10.172;2023-12-20T10:44:47;4.10;;;3.43;;
7983;SDS011;4037;47.980;10.172;2023-12-20T10:47:14;3.87;;;3.53;;
7983;SDS011;4037;47.980;10.172;2023-12-20T10:49:40;4.20;;;3.60;;
7983;SDS011;4037;47.980;10.172;2023-12-20T10:52:07;3.90;;;3.50;;
7983;SDS011;4037;47.980;10.172;2023-12-20T10:54:34;5.50;;;3.37;;
7983;SDS011;4037;47.980;10.172;2023-12-20T10:57:00;3.83;;;3.47;;
7983;SDS011;4037;47.980;10.172;2023-12-20T10:59:29;3.80;;;3.50;;
7983;SDS011;4037;47.980;10.172;2023-12-20T11:01:58;4.97;;;3.90;;
7983;SDS011;4037;47.980;10.172;2023-12-20T11:09:54;3.30;;;3.00;;
7983;SDS011;4037;47.980;10.172;2023-12-20T11:15:07;2.70;;;2.47;;
7983;SDS011;4037;47.980;10.172;2023-12-20T11:17:33;3.53;;;3.13;;
7983;SDS011;4037;47.980;10.172;2023-12-20T11:22:29;3.73;;;3.03;;
7983;SDS011;4037;47.980;10.172;2023-12-20T11:25:06;3.53;;;2.77;;
7983;SDS011;4037;47.980;10.172;2023-12-20T11:27:36;2.97;;;2.77;;
7983;SDS011;4037;47.980;10.172;2023-12-20T11:30:03;3.17;;;2.87;;
7983;SDS011;4037;47.980;10.172;2023-12-20T11:32:34;6.10;;;4.17;;
7983;SDS011;4037;47.980;10.172;2023-12-20T11:35:01;2.70;;;2.47;;
7983;SDS011;4037;47.980;10.172;2023-12-20T11:37:37;2.67;;;2.47;;
7983;SDS011;4037;47.980;10.172;2023-12-20T11:40:08;2.73;;;2.43;;
7983;SDS011;4037;47.980;10.172;2023-12-20T11:42:37;3.07;;;2.77;;
7983;SDS011;4037;47.980;10.172;2023-12-20T11:45:04;2.43;;;2.23;;
7983;SDS011;4037;47.980;10.172;2023-12-20T11:47:31;3.97;;;3.03;;
7983;SDS011;4037;47.980;10.172;2023-12-20T11:49:57;3.80;;;3.33;;
7983;SDS011;4037;47.980;10.172;2023-12-20T11:52:25;2.47;;;2.27;;
7983;SDS011;4037;47.980;10.172;2023-12-20T11:54:51;2.70;;;2.50;;
7983;SDS011;4037;47.980;10.172;2023-12-20T11:57:17;3.23;;;2.70;;
7983;SDS011;4037;47.980;10.172;2023-12-20T11:59:43;3.80;;;3.33;;
7983;SDS011;4037;47.980;10.172;2023-12-20T12:02:11;2.93;;;2.20;;
7983;SDS011;4037;47.980;10.172;2023-12-20T12:04:37;2.47;;;2.23;;
7983;SDS011;4037;47.980;10.172;2023-12-20T12:07:03;2.90;;;2.60;;
7983;SDS011;4037;47.980;10.172;2023-12-20T12:09:29;2.97;;;2.67;;
7983;SDS011;4037;47.980;10.172;2023-12-20T12:11:55;2.50;;;2.30;;
7983;SDS011;4037;47.980;10.172;2023-12-20T12:14:21;2.37;;;2.13;;
7983;SDS011;4037;47.980;10.172;2023-12-20T12:16:47;2.13;;;1.93;;
7983;SDS011;4037;47.980;10.172;2023-12-20T12:19:25;4.20;;;2.30;;
7983;SDS011;4037;47.980;10.172;2023-12-20T12:21:52;2.77;;;2.33;;
7983;SDS011;4037;47.980;10.172;2023-12-20T12:24:31;2.33;;;2.13;;
7983;SDS011;4037;47.980;10.172;2023-12-20T12:26:57;2.60;;;2.40;;
7983;SDS011;4037;47.980;10.172;2023-12-20T12:29:23;2.43;;;2.23;;
7983;SDS011;4037;47.980;10.172;2023-12-20T12:31:49;2.40;;;2.20;;
7983;SDS011;4037;47.980;10.172;2023-12-20T12:34:16;2.20;;;1.90;;
7983;SDS011;4037;47.980;10.172;2023-12-20T12:36:42;2.13;;;1.93;;
7983;SDS011;4037;47.980;10.172;2023-12-20T12:39:11;2.30;;;2.10;;
7983;SDS011;4037;47.980;10.172;2023-12-20T12:41:40;2.87;;;2.57;;
7983;SDS011;4037;47.980;10.172;2023-12-20T12:44:06;2.50;;;2.30;;
7983;SDS011;4037;47.980;10.172;2023-12-20T12:46:32;1.87;;;1.60;;
7983;SDS011;4037;47.980;10.172;2023-12-20T12:48:58;1.47;;;1.10;;
7983;SDS011;4037;47.980;10.172;2023-12-20T12:51:24;2.10;;;1.90;;
7983;SDS011;4037;47.980;10.172;2023-12-20T12:53:51;2.23;;;1.90;;
7983;SDS011;4037;47.980;10.172;2023-12-20T12:56:17;1.77;;;1.67;;
7983;SDS011;4037;47.980;10.172;2023-12-20T12:58:43;1.40;;;1.20;;
7983;SDS011;4037;47.980;10.172;2023-12-20T13:01:09;1.30;;;1.20;;
7983;SDS011;4037;47.980;10.172;2023-12-20T13:03:35;1.20;;;1.20;;
7983;SDS011;4037;47.980;10.172;2023-12-20T13:06:01;1.20;;;1.07;;
7983;SDS011;4037;47.980;10.172;2023-12-20T13:08:28;1.43;;;1.33;;
7983;SDS011;4037;47.980;10.172;2023-12-20T13:10:54;1.20;;;1.10;;
7983;SDS011;4037;47.980;10.172;2023-12-20T13:13:23;1.57;;;1.20;;
7983;SDS011;4037;47.980;10.172;2023-12-20T13:15:49;2.17;;;2.00;;
7983;SDS011;4037;47.980;10.172;2023-12-20T13:18:17;5.87;;;3.83;;
7983;SDS011;4037;47.980;10.172;2023-12-20T13:20:44;3.67;;;2.73;;
7983;SDS011;4037;47.980;10.172;2023-12-20T13:23:10;2.27;;;1.70;;
7983;SDS011;4037;47.980;10.172;2023-12-20T13:25:36;2.23;;;1.27;;
7983;SDS011;4037;47.980;10.172;2023-12-20T13:28:02;2.63;;;1.80;;
7983;SDS011;4037;47.980;10.172;2023-12-20T13:30:28;5.43;;;1.97;;
7983;SDS011;4037;47.980;10.172;2023-12-20T13:32:55;1.57;;;1.47;;
7983;SDS011;4037;47.980;10.172;2023-12-20T13:35:21;1.80;;;1.70;;
7983;SDS011;4037;47.980;10.172;2023-12-20T13:37:47;3.27;;;2.30;;
7983;SDS011;4037;47.980;10.172;2023-12-20T13:40:13;1.93;;;1.83;;
7983;SDS011;4037;47.980;10.172;2023-12-20T13:42:39;3.60;;;1.77;;
7983;SDS011;4037;47.980;10.172;2023-12-20T13:45:05;1.30;;;1.20;;
7983;SDS011;4037;47.980;10.172;2023-12-20T13:47:32;1.43;;;1.20;;
7983;SDS011;4037;47.980;10.172;2023-12-20T13:49:58;1.50;;;1.40;;
7983;SDS011;4037;47.980;10.172;2023-12-20T13:52:24;1.30;;;1.20;;
7983;SDS011;4037;47.980;10.172;2023-12-20T13:54:49;1.30;;;1.17;;
7983;SDS011;4037;47.980;10.172;2023-12-20T13:57:15;1.30;;;1.20;;
7983;SDS011;4037;47.980;10.172;2023-12-20T13:59:41;1.83;;;1.37;;
7983;SDS011;4037;47.980;10.172;2023-12-20T14:02:06;1.60;;;1.50;;
7983;SDS011;4037;47.980;10.172;2023-12-20T14:04:32;2.17;;;1.50;;
7983;SDS011;4037;47.980;10.172;2023-12-20T14:06:58;1.87;;;1.50;;
7983;SDS011;4037;47.980;10.172;2023-12-20T14:09:23;1.23;;;1.13;;
7983;SDS011;4037;47.980;10.172;2023-12-20T14:11:49;1.60;;;1.50;;
7983;SDS011;4037;47.980;10.172;2023-12-20T14:14:15;2.00;;;1.80;;
7983;SDS011;4037;47.980;10.172;2023-12-20T14:16:40;2.03;;;1.50;;
7983;SDS011;4037;47.980;10.172;2023-12-20T14:19:10;1.47;;;1.30;;
7983;SDS011;4037;47.980;10.172;2023-12-20T14:21:36;2.17;;;1.40;;
7983;SDS011;4037;47.980;10.172;2023-12-20T14:24:01;2.27;;;1.70;;
7983;SDS011;4037;47.980;10.172;2023-12-20T14:26:28;2.13;;;1.87;;
7983;SDS011;4037;47.980;10.172;2023-12-20T14:28:54;2.00;;;1.60;;
7983;SDS011;4037;47.980;10.172;2023-12-20T14:31:20;2.23;;;1.60;;
7983;SDS011;4037;47.980;10.172;2023-12-20T14:33:49;3.73;;;2.37;;
7983;SDS011;4037;47.980;10.172;2023-12-20T14:36:16;2.43;;;2.20;;
7983;SDS011;4037;47.980;10.172;2023-12-20T14:38:43;3.70;;;1.90;;
7983;SDS011;4037;47.980;10.172;2023-12-20T14:41:09;2.63;;;2.07;;
7983;SDS011;4037;47.980;10.172;2023-12-20T14:43:34;1.77;;;1.30;;
7983;SDS011;4037;47.980;10.172;2023-12-20T14:46:01;2.00;;;1.80;;
7983;SDS011;4037;47.980;10.172;2023-12-20T14:48:27;1.60;;;1.37;;
7983;SDS011;4037;47.980;10.172;2023-12-20T14:50:53;2.33;;;1.80;;
7983;SDS011;4037;47.980;10.172;2023-12-20T14:53:19;1.63;;;1.40;;
7983;SDS011;4037;47.980;10.172;2023-12-20T14:55:45;1.53;;;1.20;;
7983;SDS011;4037;47.980;10.172;2023-12-20T14:58:12;2.37;;;1.67;;
7983;SDS011;4037;47.980;10.172;2023-12-20T15:00:39;1.47;;;1.30;;
7983;SDS011;4037;47.980;10.172;2023-12-20T15:03:05;3.00;;;1.23;;
7983;SDS011;4037;47.980;10.172;2023-12-20T15:05:31;1.60;;;1.50;;
7983;SDS011;4037;47.980;10.172;2023-12-20T15:07:57;1.47;;;1.33;;